createdAt,value
2017-12-07T00:00:51.981Z,1020.96
2017-12-07T00:02:00.655Z,1020.94
2017-12-07T00:03:09.594Z,1020.91
2017-12-07T00:04:18.858Z,1020.85
2017-12-07T00:05:28.109Z,1020.84
2017-12-07T00:06:37.070Z,1020.87
2017-12-07T00:07:45.763Z,1020.82
2017-12-07T00:08:54.763Z,1020.82
2017-12-07T00:10:04.011Z,1020.81
2017-12-07T00:11:13.489Z,1020.79
2017-12-07T00:12:22.171Z,1020.78
2017-12-07T00:13:31.655Z,1020.72
2017-12-07T00:14:41.105Z,1020.7
2017-12-07T00:15:50.585Z,1020.68
2017-12-07T00:16:59.848Z,1020.67
2017-12-07T00:18:08.804Z,1020.67
2017-12-07T00:19:17.819Z,1020.68
2017-12-07T00:20:26.761Z,1020.65
2017-12-07T00:21:35.970Z,1020.6
2017-12-07T00:22:45.174Z,1020.65
2017-12-07T00:23:54.381Z,1020.63
2017-12-07T00:25:03.654Z,1020.61
2017-12-07T00:26:12.918Z,1020.59
2017-12-07T00:27:22.375Z,1020.6
2017-12-07T00:28:31.321Z,1020.53
2017-12-07T00:29:40.545Z,1020.52
2017-12-07T00:30:50.012Z,1020.52
2017-12-07T00:31:59.572Z,1020.51
2017-12-07T00:33:08.781Z,1020.52
2017-12-07T00:34:17.987Z,1020.47
2017-12-07T00:35:26.663Z,1020.42
2017-12-07T00:36:35.678Z,1020.42
2017-12-07T00:37:44.622Z,1020.42
2017-12-07T00:38:53.957Z,1020.41
2017-12-07T00:40:03.179Z,1020.34
2017-12-07T00:41:11.853Z,1020.35
2017-12-07T00:42:20.801Z,1020.31
2017-12-07T00:43:29.767Z,1020.29
2017-12-07T00:44:38.710Z,1020.25
2017-12-07T00:45:48.081Z,1020.23
2017-12-07T00:46:57.386Z,1020.26
2017-12-07T00:48:06.605Z,1020.2
2017-12-07T00:49:15.971Z,1020.24
2017-12-07T00:50:25.284Z,1020.23
2017-12-07T00:51:34.490Z,1020.22
2017-12-07T00:52:44.233Z,1020.16
2017-12-07T00:53:53.259Z,1020.11
2017-12-07T00:55:02.730Z,1020.13
2017-12-07T00:56:12.048Z,1020.14
2017-12-07T00:57:21.267Z,1020.06
2017-12-07T00:58:30.227Z,1020.1
2017-12-07T00:59:39.461Z,1020.06
2017-12-07T01:00:48.421Z,1020.04
2017-12-07T01:01:57.647Z,1019.99
2017-12-07T01:03:06.355Z,1019.98
2017-12-07T01:04:15.297Z,1019.95
2017-12-07T01:05:24.594Z,1019.96
2017-12-07T01:06:34.124Z,1019.95
2017-12-07T01:07:43.616Z,1019.93
2017-12-07T01:08:52.576Z,1019.97
2017-12-07T01:10:01.583Z,1019.95
2017-12-07T01:11:10.581Z,1019.89
2017-12-07T01:12:20.328Z,1019.9
2017-12-07T01:13:29.541Z,1019.92
2017-12-07T01:14:39.263Z,1019.93
2017-12-07T01:15:48.804Z,1019.87
2017-12-07T01:16:58.266Z,1019.88
2017-12-07T01:18:07.747Z,1019.82
2017-12-07T01:19:16.975Z,1019.75
2017-12-07T01:20:26.243Z,1019.74
2017-12-07T01:21:35.176Z,1019.69
2017-12-07T01:22:44.906Z,1019.69
2017-12-07T01:23:53.589Z,1019.67
2017-12-07T01:25:02.791Z,1019.67
2017-12-07T01:26:12.016Z,1019.65
2017-12-07T01:27:21.236Z,1019.67
2017-12-07T01:28:30.448Z,1019.64
2017-12-07T01:29:39.659Z,1019.64
2017-12-07T01:30:48.876Z,1019.59
2017-12-07T01:31:57.582Z,1019.58
2017-12-07T01:33:06.792Z,1019.63
2017-12-07T01:34:16.258Z,1019.62
2017-12-07T01:35:25.465Z,1019.64
2017-12-07T01:36:34.662Z,1019.6
2017-12-07T01:37:43.614Z,1019.68
2017-12-07T01:38:52.289Z,1019.62
2017-12-07T01:40:01.506Z,1019.57
2017-12-07T01:41:10.721Z,1019.6
2017-12-07T01:42:19.927Z,1019.53
2017-12-07T01:43:28.649Z,1019.51
2017-12-07T01:44:38.146Z,1019.5
2017-12-07T01:45:47.622Z,1019.56
2017-12-07T01:46:56.572Z,1019.56
2017-12-07T01:48:05.250Z,1019.54
2017-12-07T01:49:14.494Z,1019.54
2017-12-07T01:50:23.436Z,1019.53
2017-12-07T01:51:32.909Z,1019.53
2017-12-07T01:52:41.878Z,1019.51
2017-12-07T01:53:50.828Z,1019.47
2017-12-07T01:55:00.587Z,1019.47
2017-12-07T01:56:10.059Z,1019.41
2017-12-07T01:57:19.009Z,1019.43
2017-12-07T01:58:28.041Z,1019.39
2017-12-07T01:59:36.984Z,1019.37
2017-12-07T02:00:46.254Z,1019.35
2017-12-07T02:01:55.457Z,1019.36
2017-12-07T02:03:04.673Z,1019.32
2017-12-07T02:04:14.171Z,1019.33
2017-12-07T02:05:23.129Z,1019.37
2017-12-07T02:06:32.603Z,1019.35
2017-12-07T02:07:42.075Z,1019.35
2017-12-07T02:08:51.807Z,1019.3
2017-12-07T02:10:01.020Z,1019.33
2017-12-07T02:11:09.973Z,1019.32
2017-12-07T02:12:18.669Z,1019.31
2017-12-07T02:13:27.643Z,1019.33
2017-12-07T02:14:36.877Z,1019.31
2017-12-07T02:15:46.085Z,1019.29
2017-12-07T02:16:55.299Z,1019.31
2017-12-07T02:18:04.248Z,1019.24
2017-12-07T02:19:13.714Z,1019.26
2017-12-07T02:20:22.922Z,1019.22
2017-12-07T02:21:31.884Z,1019.17
2017-12-07T02:22:40.863Z,1019.16
2017-12-07T02:23:50.055Z,1019.13
2017-12-07T02:24:59.297Z,1019.13
2017-12-07T02:26:08.501Z,1019.12
2017-12-07T02:27:17.803Z,1019.1
2017-12-07T02:28:27.284Z,1019.04
2017-12-07T02:29:36.481Z,1019.04
2017-12-07T02:30:45.442Z,1019.08
2017-12-07T02:31:54.927Z,1018.99
2017-12-07T02:33:04.142Z,1019.01
2017-12-07T02:34:13.343Z,1018.99
2017-12-07T02:35:22.034Z,1018.96
2017-12-07T02:36:31.497Z,1018.89
2017-12-07T02:37:40.722Z,1018.92
2017-12-07T02:38:50.197Z,1018.89
2017-12-07T02:39:59.143Z,1018.85
2017-12-07T02:41:08.361Z,1018.83
2017-12-07T02:42:17.863Z,1018.81
2017-12-07T02:43:27.334Z,1018.8
2017-12-07T02:44:36.287Z,1018.83
2017-12-07T02:45:45.547Z,1018.78
2017-12-07T02:46:55.300Z,1018.76
2017-12-07T02:48:04.774Z,1018.71
2017-12-07T02:49:14.242Z,1018.65
2017-12-07T02:50:23.712Z,1018.62
2017-12-07T02:51:32.404Z,1018.61
2017-12-07T02:52:42.169Z,1018.57
2017-12-07T02:53:51.361Z,1018.58
2017-12-07T02:55:00.310Z,1018.56
2017-12-07T02:56:09.788Z,1018.54
2017-12-07T02:57:19.259Z,1018.56
2017-12-07T02:58:28.512Z,1018.48
2017-12-07T02:59:37.718Z,1018.47
2017-12-07T03:00:46.684Z,1018.47
2017-12-07T03:01:56.069Z,1018.47
2017-12-07T03:03:05.019Z,1018.46
2017-12-07T03:04:14.232Z,1018.45
2017-12-07T03:05:23.195Z,1018.43
2017-12-07T03:06:32.675Z,1018.43
2017-12-07T03:07:41.350Z,1018.39
2017-12-07T03:08:50.843Z,1018.39
2017-12-07T03:10:00.309Z,1018.34
2017-12-07T03:11:09.772Z,1018.31
2017-12-07T03:12:18.982Z,1018.3
2017-12-07T03:13:28.244Z,1018.28
2017-12-07T03:14:38.048Z,1018.24
2017-12-07T03:15:46.984Z,1018.22
2017-12-07T03:16:56.464Z,1018.22
2017-12-07T03:18:05.402Z,1018.21
2017-12-07T03:19:14.353Z,1018.18
2017-12-07T03:20:23.030Z,1018.13
2017-12-07T03:21:32.237Z,1018.15
2017-12-07T03:22:41.191Z,1018.13
2017-12-07T03:23:50.420Z,1018.09
2017-12-07T03:24:59.101Z,1018.1
2017-12-07T03:26:08.048Z,1018.08
2017-12-07T03:27:16.993Z,1018.05
2017-12-07T03:28:25.934Z,1018.06
2017-12-07T03:29:35.400Z,1018.03
2017-12-07T03:30:44.075Z,1018.03
2017-12-07T03:31:52.774Z,1017.99
2017-12-07T03:33:01.983Z,1017.97
2017-12-07T03:34:11.457Z,1017.95
2017-12-07T03:35:20.482Z,1017.95
2017-12-07T03:36:29.705Z,1017.95
2017-12-07T03:37:38.652Z,1017.94
2017-12-07T03:38:47.904Z,1017.89
2017-12-07T03:39:57.110Z,1017.9
2017-12-07T03:41:06.367Z,1017.88
2017-12-07T03:42:15.315Z,1017.85
2017-12-07T03:43:24.584Z,1017.89
2017-12-07T03:44:33.578Z,1017.86
2017-12-07T03:45:42.555Z,1017.81
2017-12-07T03:46:52.027Z,1017.79
2017-12-07T03:48:01.234Z,1017.79
2017-12-07T03:49:10.772Z,1017.75
2017-12-07T03:50:20.235Z,1017.71
2017-12-07T03:51:29.191Z,1017.69
2017-12-07T03:52:38.391Z,1017.63
2017-12-07T03:53:47.109Z,1017.61
2017-12-07T03:54:55.793Z,1017.6
2017-12-07T03:56:05.007Z,1017.58
2017-12-07T03:57:14.226Z,1017.58
2017-12-07T03:58:23.949Z,1017.53
2017-12-07T03:59:32.629Z,1017.56
2017-12-07T04:00:41.591Z,1017.54
2017-12-07T04:01:50.538Z,1017.5
2017-12-07T04:02:59.489Z,1017.51
2017-12-07T04:04:08.970Z,1017.48
2017-12-07T04:05:18.175Z,1017.5
2017-12-07T04:06:27.130Z,1017.46
2017-12-07T04:07:36.340Z,1017.41
2017-12-07T04:08:45.026Z,1017.39
2017-12-07T04:09:53.720Z,1017.4
2017-12-07T04:11:02.401Z,1017.37
2017-12-07T04:12:11.645Z,1017.36
2017-12-07T04:13:21.376Z,1017.35
2017-12-07T04:14:30.047Z,1017.38
2017-12-07T04:15:39.266Z,1017.35
2017-12-07T04:16:48.765Z,1017.29
2017-12-07T04:17:58.224Z,1017.33
2017-12-07T04:19:07.178Z,1017.31
2017-12-07T04:20:16.648Z,1017.28
2017-12-07T04:21:25.679Z,1017.24
2017-12-07T04:22:34.909Z,1017.17
2017-12-07T04:23:43.849Z,1017.16
2017-12-07T04:24:53.121Z,1017.14
2017-12-07T04:26:01.813Z,1017.16
2017-12-07T04:27:11.033Z,1017.08
2017-12-07T04:28:20.517Z,1017.15
2017-12-07T04:29:29.728Z,1017.13
2017-12-07T04:30:39.480Z,1017.12
2017-12-07T04:31:48.180Z,1017.09
2017-12-07T04:32:56.868Z,1017.12
2017-12-07T04:34:06.876Z,1017.06
2017-12-07T04:35:15.824Z,1017.03
2017-12-07T04:36:25.279Z,1017.05
2017-12-07T04:37:34.220Z,1016.99
2017-12-07T04:38:42.906Z,1017
2017-12-07T04:39:52.134Z,1016.98
2017-12-07T04:41:01.370Z,1016.97
2017-12-07T04:42:10.851Z,1016.96
2017-12-07T04:43:20.056Z,1016.88
2017-12-07T04:44:29.014Z,1016.87
2017-12-07T04:45:37.961Z,1016.91
2017-12-07T04:46:47.953Z,1016.91
2017-12-07T04:47:56.894Z,1016.87
2017-12-07T04:49:05.859Z,1016.82
2017-12-07T04:50:15.080Z,1016.84
2017-12-07T04:51:24.022Z,1016.82
2017-12-07T04:52:33.493Z,1016.75
2017-12-07T04:53:42.702Z,1016.81
2017-12-07T04:54:51.713Z,1016.78
2017-12-07T04:56:00.917Z,1016.76
2017-12-07T04:57:10.387Z,1016.79
2017-12-07T04:58:19.103Z,1016.77
2017-12-07T04:59:28.073Z,1016.71
2017-12-07T05:00:37.022Z,1016.72
2017-12-07T05:01:45.972Z,1016.65
2017-12-07T05:02:55.169Z,1016.67
2017-12-07T05:04:04.378Z,1016.67
2017-12-07T05:05:13.605Z,1016.69
2017-12-07T05:06:22.820Z,1016.67
2017-12-07T05:07:32.289Z,1016.64
2017-12-07T05:08:40.975Z,1016.64
2017-12-07T05:09:50.709Z,1016.65
2017-12-07T05:11:00.185Z,1016.66
2017-12-07T05:12:09.141Z,1016.66
2017-12-07T05:13:18.366Z,1016.66
2017-12-07T05:14:27.857Z,1016.71
2017-12-07T05:15:37.587Z,1016.7
2017-12-07T05:16:46.534Z,1016.71
2017-12-07T05:17:56.537Z,1016.67
2017-12-07T05:19:05.553Z,1016.69
2017-12-07T05:20:14.746Z,1016.67
2017-12-07T05:21:23.763Z,1016.65
2017-12-07T05:22:33.239Z,1016.62
2017-12-07T05:23:42.192Z,1016.61
2017-12-07T05:24:51.414Z,1016.6
2017-12-07T05:26:01.174Z,1016.6
2017-12-07T05:27:10.903Z,1016.66
2017-12-07T05:28:19.862Z,1016.63
2017-12-07T05:29:28.805Z,1016.59
2017-12-07T05:30:37.744Z,1016.57
2017-12-07T05:31:46.716Z,1016.57
2017-12-07T05:32:55.926Z,1016.56
2017-12-07T05:34:04.603Z,1016.56
2017-12-07T05:35:14.072Z,1016.59
2017-12-07T05:36:23.019Z,1016.53
2017-12-07T05:37:31.709Z,1016.56
2017-12-07T05:38:40.917Z,1016.57
2017-12-07T05:39:49.862Z,1016.54
2017-12-07T05:40:59.334Z,1016.57
2017-12-07T05:42:08.857Z,1016.56
2017-12-07T05:43:17.862Z,1016.57
2017-12-07T05:44:27.672Z,1016.57
2017-12-07T05:45:37.156Z,1016.52
2017-12-07T05:46:46.117Z,1016.52
2017-12-07T05:47:55.321Z,1016.5
2017-12-07T05:49:04.542Z,1016.48
2017-12-07T05:50:13.481Z,1016.46
2017-12-07T05:51:22.715Z,1016.46
2017-12-07T05:52:31.953Z,1016.43
2017-12-07T05:53:40.666Z,1016.4
2017-12-07T05:54:50.147Z,1016.37
2017-12-07T05:55:59.113Z,1016.38
2017-12-07T05:57:08.594Z,1016.39
2017-12-07T05:58:17.835Z,1016.34
2017-12-07T05:59:26.581Z,1016.36
2017-12-07T06:00:35.780Z,1016.3
2017-12-07T06:01:44.483Z,1016.27
2017-12-07T06:02:53.261Z,1016.33
2017-12-07T06:04:02.211Z,1016.25
2017-12-07T06:05:10.900Z,1016.29
2017-12-07T06:06:19.577Z,1016.26
2017-12-07T06:07:28.549Z,1016.27
2017-12-07T06:08:37.773Z,1016.26
2017-12-07T06:09:46.503Z,1016.28
2017-12-07T06:10:55.978Z,1016.3
2017-12-07T06:12:05.207Z,1016.28
2017-12-07T06:13:13.991Z,1016.28
2017-12-07T06:14:22.949Z,1016.26
2017-12-07T06:15:31.659Z,1016.27
2017-12-07T06:16:41.154Z,1016.27
2017-12-07T06:17:50.370Z,1016.25
2017-12-07T06:18:59.365Z,1016.26
2017-12-07T06:20:08.642Z,1016.29
2017-12-07T06:21:18.250Z,1016.26
2017-12-07T06:22:27.511Z,1016.24
2017-12-07T06:23:36.753Z,1016.18
2017-12-07T06:24:45.999Z,1016.12
2017-12-07T06:25:54.687Z,1016.18
2017-12-07T06:27:03.997Z,1016.17
2017-12-07T06:28:12.732Z,1016.17
2017-12-07T06:29:22.476Z,1016.19
2017-12-07T06:30:31.704Z,1016.16
2017-12-07T06:31:40.659Z,1016.18
2017-12-07T06:32:49.634Z,1016.14
2017-12-07T06:33:58.873Z,1016.2
2017-12-07T06:35:08.131Z,1016.22
2017-12-07T06:36:17.434Z,1016.2
2017-12-07T06:37:26.420Z,1016.21
2017-12-07T06:38:35.119Z,1016.16
2017-12-07T06:39:44.875Z,1016.17
2017-12-07T06:40:54.419Z,1016.16
2017-12-07T06:42:03.414Z,1016.15
2017-12-07T06:43:12.944Z,1016.17
2017-12-07T06:44:22.194Z,1016.13
2017-12-07T06:45:31.217Z,1016.16
2017-12-07T06:46:40.707Z,1016.19
2017-12-07T06:47:49.668Z,1016.13
2017-12-07T06:48:58.712Z,1016.14
2017-12-07T06:50:07.419Z,1016.14
2017-12-07T06:51:16.138Z,1016.14
2017-12-07T06:52:24.848Z,1016.16
2017-12-07T06:53:34.729Z,1016.11
2017-12-07T06:54:43.936Z,1016.14
2017-12-07T06:55:52.660Z,1016.22
2017-12-07T06:57:01.662Z,1016.13
2017-12-07T06:58:10.647Z,1016.1
2017-12-07T06:59:20.154Z,1016.12
2017-12-07T07:00:29.093Z,1016.06
2017-12-07T07:01:38.040Z,1016.08
2017-12-07T07:02:47.827Z,1016.02
2017-12-07T07:03:56.558Z,1016.03
2017-12-07T07:05:05.509Z,1016.01
2017-12-07T07:06:14.494Z,1016.05
2017-12-07T07:07:23.461Z,1016.03
2017-12-07T07:08:32.660Z,1016.05
2017-12-07T07:09:41.390Z,1016
2017-12-07T07:10:50.629Z,1015.96
2017-12-07T07:11:59.306Z,1015.97
2017-12-07T07:13:08.558Z,1015.97
2017-12-07T07:14:17.768Z,1016
2017-12-07T07:15:26.740Z,1016
2017-12-07T07:16:35.702Z,1016.01
2017-12-07T07:17:45.184Z,1015.94
2017-12-07T07:18:54.672Z,1015.93
2017-12-07T07:20:03.888Z,1015.93
2017-12-07T07:21:12.838Z,1015.95
2017-12-07T07:22:22.118Z,1015.92
2017-12-07T07:23:31.066Z,1015.89
2017-12-07T07:24:39.996Z,1015.91
2017-12-07T07:25:49.206Z,1015.87
2017-12-07T07:26:58.214Z,1015.87
2017-12-07T07:28:06.904Z,1015.85
2017-12-07T07:29:15.862Z,1015.86
2017-12-07T07:30:25.145Z,1015.86
2017-12-07T07:31:34.902Z,1015.85
2017-12-07T07:32:43.856Z,1015.83
2017-12-07T07:33:53.327Z,1015.82
2017-12-07T07:35:02.363Z,1015.84
2017-12-07T07:36:11.605Z,1015.74
2017-12-07T07:37:21.466Z,1015.73
2017-12-07T07:38:30.699Z,1015.71
2017-12-07T07:39:40.243Z,1015.73
2017-12-07T07:40:49.203Z,1015.72
2017-12-07T07:41:58.696Z,1015.76
2017-12-07T07:43:07.645Z,1015.75
2017-12-07T07:44:17.143Z,1015.76
2017-12-07T07:45:26.630Z,1015.72
2017-12-07T07:46:35.599Z,1015.8
2017-12-07T07:47:45.080Z,1015.77
2017-12-07T07:48:54.316Z,1015.8
2017-12-07T07:50:03.071Z,1015.85
2017-12-07T07:51:12.023Z,1015.86
2017-12-07T07:52:21.256Z,1015.8
2017-12-07T07:53:30.362Z,1015.84
2017-12-07T07:54:39.321Z,1015.82
2017-12-07T07:55:48.004Z,1015.8
2017-12-07T07:56:57.219Z,1015.84
2017-12-07T07:58:06.715Z,1015.83
2017-12-07T07:59:15.663Z,1015.79
2017-12-07T08:00:25.160Z,1015.81
2017-12-07T08:01:33.854Z,1015.77
2017-12-07T08:02:43.073Z,1015.74
2017-12-07T08:03:52.034Z,1015.77
2017-12-07T08:05:01.831Z,1015.82
2017-12-07T08:06:10.647Z,1015.83
2017-12-07T08:07:19.335Z,1015.8
2017-12-07T08:08:28.284Z,1015.76
2017-12-07T08:09:36.963Z,1015.78
2017-12-07T08:10:45.646Z,1015.76
2017-12-07T08:11:54.588Z,1015.77
2017-12-07T08:13:03.832Z,1015.81
2017-12-07T08:14:13.063Z,1015.77
2017-12-07T08:15:22.012Z,1015.77
2017-12-07T08:16:31.227Z,1015.71
2017-12-07T08:17:39.916Z,1015.69
2017-12-07T08:18:49.675Z,1015.75
2017-12-07T08:19:58.690Z,1015.67
2017-12-07T08:21:07.925Z,1015.69
2017-12-07T08:22:17.175Z,1015.66
2017-12-07T08:23:26.397Z,1015.65
2017-12-07T08:24:35.349Z,1015.68
2017-12-07T08:25:44.840Z,1015.69
2017-12-07T08:26:54.052Z,1015.64
2017-12-07T08:28:03.536Z,1015.61
2017-12-07T08:29:12.815Z,1015.57
2017-12-07T08:30:21.781Z,1015.48
2017-12-07T08:31:30.455Z,1015.45
2017-12-07T08:32:39.404Z,1015.4
2017-12-07T08:33:48.097Z,1015.35
2017-12-07T08:34:57.304Z,1015.34
2017-12-07T08:36:07.054Z,1015.34
2017-12-07T08:37:16.306Z,1015.26
2017-12-07T08:38:25.269Z,1015.3
2017-12-07T08:39:34.476Z,1015.29
2017-12-07T08:40:43.422Z,1015.29
2017-12-07T08:41:52.404Z,1015.28
2017-12-07T08:43:01.903Z,1015.36
2017-12-07T08:44:10.655Z,1015.36
2017-12-07T08:45:19.856Z,1015.34
2017-12-07T08:46:29.919Z,1015.29
2017-12-07T08:47:38.858Z,1015.27
2017-12-07T08:48:48.057Z,1015.24
2017-12-07T08:49:57.011Z,1015.21
2017-12-07T08:51:05.969Z,1015.17
2017-12-07T08:52:14.917Z,1015.15
2017-12-07T08:53:23.859Z,1015.15
2017-12-07T08:54:32.826Z,1015.11
2017-12-07T08:55:42.352Z,1015.02
2017-12-07T08:56:51.299Z,1015.01
2017-12-07T08:57:59.987Z,1015.04
2017-12-07T08:59:08.957Z,1014.95
2017-12-07T09:00:18.441Z,1014.89
2017-12-07T09:01:27.649Z,1014.94
2017-12-07T09:02:36.884Z,1014.93
2017-12-07T09:03:45.969Z,1014.85
2017-12-07T09:04:55.516Z,1014.86
2017-12-07T09:06:04.470Z,1014.76
2017-12-07T09:07:13.456Z,1014.77
2017-12-07T09:08:22.933Z,1014.7
2017-12-07T09:09:32.157Z,1014.68
2017-12-07T09:10:41.265Z,1014.65
2017-12-07T09:11:50.228Z,1014.69
2017-12-07T09:12:59.434Z,1014.63
2017-12-07T09:14:08.154Z,1014.61
2017-12-07T09:15:17.560Z,1014.61
2017-12-07T09:16:26.770Z,1014.55
2017-12-07T09:17:35.989Z,1014.56
2017-12-07T09:18:45.461Z,1014.48
2017-12-07T09:19:55.204Z,1014.56
2017-12-07T09:21:04.433Z,1014.53
2017-12-07T09:22:13.150Z,1014.54
2017-12-07T09:23:22.618Z,1014.49
2017-12-07T09:24:31.575Z,1014.5
2017-12-07T09:25:40.799Z,1014.5
2017-12-07T09:26:50.010Z,1014.43
2017-12-07T09:27:59.271Z,1014.46
2017-12-07T09:29:08.307Z,1014.54
2017-12-07T09:30:17.790Z,1014.48
2017-12-07T09:31:27.266Z,1014.48
2017-12-07T09:32:36.222Z,1014.5
2017-12-07T09:33:45.700Z,1014.46
2017-12-07T09:34:54.386Z,1014.44
2017-12-07T09:36:03.337Z,1014.38
2017-12-07T09:37:12.540Z,1014.39
2017-12-07T09:38:22.040Z,1014.39
2017-12-07T09:39:31.598Z,1014.43
2017-12-07T09:40:40.581Z,1014.33
2017-12-07T09:41:49.540Z,1014.3
2017-12-07T09:42:58.489Z,1014.32
2017-12-07T09:44:07.440Z,1014.27
2017-12-07T09:45:16.831Z,1014.32
2017-12-07T09:46:26.052Z,1014.25
2017-12-07T09:47:34.738Z,1014.18
2017-12-07T09:48:43.725Z,1014.17
2017-12-07T09:49:52.676Z,1014.14
2017-12-07T09:51:01.364Z,1014.17
2017-12-07T09:52:10.580Z,1014.12
2017-12-07T09:53:19.786Z,1014.07
2017-12-07T09:54:29.041Z,1014.09
2017-12-07T09:55:38.292Z,1014.06
2017-12-07T09:56:47.543Z,1014.08
2017-12-07T09:57:56.920Z,1014.11
2017-12-07T09:59:05.868Z,1014.07
2017-12-07T10:00:14.838Z,1014.05
2017-12-07T10:01:23.820Z,1014.02
2017-12-07T10:02:32.795Z,1013.99
2017-12-07T10:03:41.764Z,1013.92
2017-12-07T10:04:50.981Z,1013.92
2017-12-07T10:06:00.184Z,1013.83
2017-12-07T10:07:09.470Z,1013.83
2017-12-07T10:08:18.425Z,1013.86
2017-12-07T10:09:27.448Z,1013.82
2017-12-07T10:10:36.693Z,1013.8
2017-12-07T10:11:45.643Z,1013.75
2017-12-07T10:12:54.595Z,1013.75
2017-12-07T10:14:03.797Z,1013.68
2017-12-07T10:15:13.011Z,1013.68
2017-12-07T10:16:21.948Z,1013.65
2017-12-07T10:17:31.156Z,1013.59
2017-12-07T10:18:40.369Z,1013.6
2017-12-07T10:19:49.836Z,1013.67
2017-12-07T10:20:58.790Z,1013.57
2017-12-07T10:22:08.021Z,1013.59
2017-12-07T10:23:17.236Z,1013.52
2017-12-07T10:24:26.236Z,1013.55
2017-12-07T10:25:35.435Z,1013.51
2017-12-07T10:26:44.630Z,1013.49
2017-12-07T10:27:53.571Z,1013.49
2017-12-07T10:29:03.054Z,1013.51
2017-12-07T10:30:12.016Z,1013.42
2017-12-07T10:31:21.003Z,1013.42
2017-12-07T10:32:30.475Z,1013.39
2017-12-07T10:33:39.156Z,1013.36
2017-12-07T10:34:47.834Z,1013.39
2017-12-07T10:35:57.052Z,1013.39
2017-12-07T10:37:06.551Z,1013.29
2017-12-07T10:38:15.753Z,1013.24
2017-12-07T10:39:25.029Z,1013.28
2017-12-07T10:40:34.266Z,1013.17
2017-12-07T10:41:43.518Z,1013.14
2017-12-07T10:42:52.990Z,1013.11
2017-12-07T10:44:02.463Z,1013.04
2017-12-07T10:45:11.703Z,1013
2017-12-07T10:46:20.392Z,1012.92
2017-12-07T10:47:29.866Z,1012.92
2017-12-07T10:48:39.332Z,1012.92
2017-12-07T10:49:48.532Z,1012.91
2017-12-07T10:50:57.994Z,1012.87
2017-12-07T10:52:06.712Z,1012.85
2017-12-07T10:53:16.236Z,1012.75
2017-12-07T10:54:25.457Z,1012.74
2017-12-07T10:55:34.404Z,1012.67
2017-12-07T10:56:44.129Z,1012.7
2017-12-07T10:57:53.826Z,1012.59
2017-12-07T10:59:03.305Z,1012.59
2017-12-07T11:00:12.580Z,1012.54
2017-12-07T11:01:21.585Z,1012.59
2017-12-07T11:02:30.522Z,1012.5
2017-12-07T11:03:39.742Z,1012.49
2017-12-07T11:04:49.243Z,1012.5
2017-12-07T11:05:57.925Z,1012.46
2017-12-07T11:07:06.606Z,1012.42
2017-12-07T11:08:16.338Z,1012.32
2017-12-07T11:09:25.019Z,1012.31
2017-12-07T11:10:33.711Z,1012.28
2017-12-07T11:11:42.671Z,1012.21
2017-12-07T11:12:51.883Z,1012.23
2017-12-07T11:14:01.360Z,1012.12
2017-12-07T11:15:10.299Z,1012.1
2017-12-07T11:16:19.541Z,1012.07
2017-12-07T11:17:28.765Z,1011.99
2017-12-07T11:18:37.987Z,1011.93
2017-12-07T11:19:46.931Z,1011.94
2017-12-07T11:20:56.164Z,1011.86
2017-12-07T11:22:05.370Z,1011.88
2017-12-07T11:23:14.322Z,1011.88
2017-12-07T11:24:23.569Z,1011.87
2017-12-07T11:25:33.055Z,1011.78
2017-12-07T11:26:41.771Z,1011.81
2017-12-07T11:27:51.010Z,1011.74
2017-12-07T11:28:59.981Z,1011.65
2017-12-07T11:30:08.946Z,1011.62
2017-12-07T11:31:17.888Z,1011.6
2017-12-07T11:32:27.354Z,1011.56
2017-12-07T11:33:36.326Z,1011.55
2017-12-07T11:34:45.004Z,1011.53
2017-12-07T11:35:54.204Z,1011.45
2017-12-07T11:37:03.686Z,1011.36
2017-12-07T11:38:12.894Z,1011.34
2017-12-07T11:39:22.112Z,1011.29
2017-12-07T11:40:31.058Z,1011.22
2017-12-07T11:41:40.274Z,1011.17
2017-12-07T11:42:49.226Z,1011.14
2017-12-07T11:43:58.757Z,1011.13
2017-12-07T11:45:08.227Z,1011.14
2017-12-07T11:46:17.446Z,1011.07
2017-12-07T11:47:26.461Z,1011.05
2017-12-07T11:48:35.148Z,1011.05
2017-12-07T11:49:44.350Z,1010.98
2017-12-07T11:50:53.035Z,1010.97
2017-12-07T11:52:01.977Z,1010.95
2017-12-07T11:53:11.128Z,1010.9
2017-12-07T11:54:20.624Z,1010.84
2017-12-07T11:55:29.594Z,1010.83
2017-12-07T11:56:38.410Z,1010.82
2017-12-07T11:57:47.996Z,1010.81
2017-12-07T11:58:57.484Z,1010.79
2017-12-07T12:00:07.424Z,1010.79
2017-12-07T12:01:16.435Z,1010.79
2017-12-07T12:02:25.630Z,1010.72
2017-12-07T12:03:34.822Z,1010.62
2017-12-07T12:04:44.086Z,1010.62
2017-12-07T12:05:53.038Z,1010.6
2017-12-07T12:07:02.255Z,1010.65
2017-12-07T12:08:11.732Z,1010.56
2017-12-07T12:09:20.671Z,1010.59
2017-12-07T12:10:29.656Z,1010.58
2017-12-07T12:11:39.422Z,1010.57
2017-12-07T12:12:48.918Z,1010.45
2017-12-07T12:13:57.894Z,1010.45
2017-12-07T12:15:06.870Z,1010.46
2017-12-07T12:16:16.187Z,1010.47
2017-12-07T12:17:26.135Z,1010.41
2017-12-07T12:18:34.841Z,1010.41
2017-12-07T12:19:43.811Z,1010.37
2017-12-07T12:20:53.532Z,1010.35
2017-12-07T12:22:03.003Z,1010.37
2017-12-07T12:23:11.692Z,1010.33
2017-12-07T12:24:20.905Z,1010.34
2017-12-07T12:25:30.398Z,1010.33
2017-12-07T12:26:39.340Z,1010.26
2017-12-07T12:27:48.832Z,1010.27
2017-12-07T12:28:58.035Z,1010.26
2017-12-07T12:30:06.971Z,1010.22
2017-12-07T12:31:15.925Z,1010.16
2017-12-07T12:32:25.116Z,1010.22
2017-12-07T12:33:34.047Z,1010.19
2017-12-07T12:34:43.254Z,1010.1
2017-12-07T12:35:52.459Z,1010.12
2017-12-07T12:37:01.404Z,1010.08
2017-12-07T12:38:10.926Z,1010.09
2017-12-07T12:39:20.919Z,1009.95
2017-12-07T12:40:30.423Z,1009.99
2017-12-07T12:41:39.161Z,1009.89
2017-12-07T12:42:47.849Z,1009.85
2017-12-07T12:43:57.317Z,1009.77
2017-12-07T12:45:06.550Z,1009.81
2017-12-07T12:46:15.494Z,1009.83
2017-12-07T12:47:24.740Z,1009.88
2017-12-07T12:48:33.941Z,1009.89
2017-12-07T12:49:43.146Z,1009.82
2017-12-07T12:50:52.867Z,1009.79
2017-12-07T12:52:02.408Z,1009.74
2017-12-07T12:53:11.645Z,1009.7
2017-12-07T12:54:20.620Z,1009.73
2017-12-07T12:55:29.842Z,1009.68
2017-12-07T12:56:39.344Z,1009.7
2017-12-07T12:57:48.540Z,1009.6
2017-12-07T12:58:57.504Z,1009.57
2017-12-07T13:00:07.224Z,1009.59
2017-12-07T13:01:16.701Z,1009.55
2017-12-07T13:02:25.924Z,1009.54
2017-12-07T13:03:35.398Z,1009.51
2017-12-07T13:04:44.853Z,1009.42
2017-12-07T13:05:53.537Z,1009.45
2017-12-07T13:07:02.220Z,1009.37
2017-12-07T13:08:11.412Z,1009.38
2017-12-07T13:09:20.337Z,1009.35
2017-12-07T13:10:29.013Z,1009.32
2017-12-07T13:11:38.739Z,1009.34
2017-12-07T13:12:48.234Z,1009.34
2017-12-07T13:13:56.941Z,1009.35
2017-12-07T13:15:06.158Z,1009.31
2017-12-07T13:16:14.854Z,1009.32
2017-12-07T13:17:23.793Z,1009.3
2017-12-07T13:18:33.315Z,1009.27
2017-12-07T13:19:41.991Z,1009.2
2017-12-07T13:20:51.214Z,1009.17
2017-12-07T13:22:00.429Z,1009.26
2017-12-07T13:23:09.630Z,1009.25
2017-12-07T13:24:18.578Z,1009.21
2017-12-07T13:25:27.548Z,1009.19
2017-12-07T13:26:36.779Z,1009.19
2017-12-07T13:27:45.710Z,1009.07
2017-12-07T13:28:54.410Z,1009.03
2017-12-07T13:30:03.428Z,1009.02
2017-12-07T13:31:12.902Z,1009
2017-12-07T13:32:22.359Z,1008.88
2017-12-07T13:33:31.306Z,1008.85
2017-12-07T13:34:40.766Z,1008.84
2017-12-07T13:35:49.960Z,1008.87
2017-12-07T13:36:58.902Z,1008.82
2017-12-07T13:38:14.110Z,1008.83
2017-12-07T13:39:22.796Z,1008.76
2017-12-07T13:40:31.758Z,1008.72
2017-12-07T13:44:13.060Z,1008.69
2017-12-07T13:45:22.602Z,1008.64
2017-12-07T13:46:31.832Z,1008.57
2017-12-07T13:47:41.047Z,1008.61
2017-12-07T13:48:50.246Z,1008.57
2017-12-07T13:49:59.190Z,1008.64
2017-12-07T13:51:08.170Z,1008.49
2017-12-07T13:52:17.769Z,1008.52
2017-12-07T13:53:26.720Z,1008.45
2017-12-07T13:54:35.941Z,1008.38
2017-12-07T13:55:44.637Z,1008.33
2017-12-07T13:56:53.588Z,1008.3
2017-12-07T13:58:02.544Z,1008.26
2017-12-07T13:59:11.502Z,1008.21
2017-12-07T14:00:20.462Z,1008.19
2017-12-07T14:01:29.675Z,1008.22
2017-12-07T14:02:38.647Z,1008.21